Time;durP1;ratioP1;P1;durP2;ratioP2;P2;SDS_P1;SDS_P2;PMS_P1;PMS_P2;Temp;Humidity;BMP_temperature;BMP_pressure;BME280_temperature;BME280_humidity;BME280_pressure;Samples;Min_cycle;Max_cycle;Signal;HPM_P1;HPM_P2
2021/10/12 00:01:31;;;;;;;54.03;31.63;;;9.80;99.90;;;;;;5136371;27;20051;-66
2021/10/12 00:03:56;;;;;;;57.47;30.83;;;9.80;99.90;;;;;;5135927;27;20054;-65
2021/10/12 00:06:22;;;;;;;61.15;34.47;;;9.90;99.90;;;;;;5136250;27;20038;-65
2021/10/12 00:08:48;;;;;;;57.53;32.60;;;9.90;99.90;;;;;;5136200;27;20348;-65
2021/10/12 00:11:13;;;;;;;55.07;32.63;;;9.80;99.90;;;;;;5136064;27;20019;-64
2021/10/12 00:13:39;;;;;;;58.43;34.07;;;9.80;99.90;;;;;;5135943;27;20030;-64
2021/10/12 00:16:05;;;;;;;59.50;32.87;;;9.70;99.90;;;;;;5136057;27;20061;-65
2021/10/12 00:18:30;;;;;;;53.60;31.00;;;9.70;99.90;;;;;;5135958;27;20023;-65
2021/10/12 00:20:56;;;;;;;53.70;31.10;;;9.70;99.90;;;;;;5117941;27;20028;-65
2021/10/12 00:23:22;;;;;;;53.63;31.10;;;9.70;99.90;;;;;;5117367;27;20129;-66
2021/10/12 00:25:48;;;;;;;57.20;30.48;;;9.70;99.90;;;;;;5135886;27;20023;-66
2021/10/12 00:28:13;;;;;;;62.17;34.00;;;9.70;99.90;;;;;;5136198;27;20027;-66
2021/10/12 00:30:39;;;;;;;56.53;33.23;;;9.70;99.90;;;;;;5135877;27;20030;-66
2021/10/12 00:33:05;;;;;;;52.90;31.35;;;9.70;99.90;;;;;;5136292;27;20027;-66
2021/10/12 00:35:31;;;;;;;52.55;31.45;;;9.70;99.90;;;;;;5117770;27;20537;-67
2021/10/12 00:37:57;;;;;;;64.37;34.77;;;9.70;99.90;;;;;;5135812;27;20023;-65
2021/10/12 00:40:23;;;;;;;56.92;32.33;;;9.70;99.90;;;;;;5135519;27;20022;-65
2021/10/12 00:42:48;;;;;;;51.53;31.65;;;9.70;99.90;;;;;;5116921;27;20055;-65
2021/10/12 00:45:15;;;;;;;54.03;32.33;;;9.70;99.90;;;;;;5135223;27;20054;-64
2021/10/12 00:47:58;;;;;;;52.17;31.30;;;9.70;99.90;;;;;;5135842;27;20443;-65
2021/10/12 00:50:24;;;;;;;49.22;30.27;;;9.70;99.90;;;;;;5141199;27;20071;-64
2021/10/12 00:52:49;;;;;;;50.65;30.38;;;9.70;99.90;;;;;;5145180;27;20057;-65
2021/10/12 00:55:15;;;;;;;47.87;29.70;;;9.70;99.90;;;;;;5142250;27;20110;-64
2021/10/12 00:57:41;;;;;;;50.50;29.07;;;9.80;99.90;;;;;;5138695;27;20026;-64
2021/10/12 01:00:07;;;;;;;51.88;30.95;;;9.70;99.90;;;;;;5140192;27;20019;-65
2021/10/12 01:02:34;;;;;;;52.00;30.45;;;9.70;99.90;;;;;;5138181;27;20079;-64
2021/10/12 01:05:01;;;;;;;56.38;31.48;;;9.70;99.90;;;;;;5135434;27;20106;-64
2021/10/12 01:07:27;;;;;;;57.88;31.05;;;9.70;99.90;;;;;;5136137;27;20511;-65
2021/10/12 01:09:53;;;;;;;;;;;9.80;99.90;;;;;;5135993;27;20027;-64
2021/10/12 01:12:18;;;;;;;53.78;30.63;;;9.80;99.90;;;;;;5135259;27;19979;-64
2021/10/12 01:14:44;;;;;;;57.93;32.53;;;9.80;99.90;;;;;;5116867;27;20382;-65
2021/10/12 01:17:10;;;;;;;52.65;30.88;;;9.80;99.90;;;;;;5134990;27;20444;-65
2021/10/12 01:19:36;;;;;;;54.97;31.27;;;9.80;99.90;;;;;;5135209;27;20035;-65
2021/10/12 01:22:02;;;;;;;57.40;33.37;;;9.80;99.90;;;;;;5135099;27;20027;-65
2021/10/12 01:24:27;;;;;;;54.58;30.15;;;9.70;99.90;;;;;;5134692;27;20110;-65
2021/10/12 01:26:54;;;;;;;54.95;31.42;;;9.70;99.90;;;;;;5134790;27;20076;-65
2021/10/12 01:29:20;;;;;;;57.55;32.05;;;9.70;99.90;;;;;;5134714;27;20027;-65
2021/10/12 01:31:45;;;;;;;54.77;32.60;;;9.80;99.90;;;;;;5116185;27;20034;-65
2021/10/12 01:34:17;;;;;;;58.87;33.43;;;9.80;99.90;;;;;;5134392;27;20367;-65
2021/10/12 01:36:43;;;;;;;55.28;31.10;;;9.80;99.90;;;;;;5134901;27;20102;-65
2021/10/12 01:39:09;;;;;;;57.78;33.45;;;9.80;99.90;;;;;;5134379;27;20495;-65
2021/10/12 01:41:35;;;;;;;60.28;33.25;;;9.80;99.90;;;;;;5134301;27;20027;-65
2021/10/12 01:44:01;;;;;;;56.85;32.13;;;9.80;99.90;;;;;;5135134;27;20487;-65
2021/10/12 01:46:26;;;;;;;61.00;33.50;;;9.80;99.90;;;;;;5134771;27;20035;-65
2021/10/12 01:48:53;;;;;;;60.27;31.77;;;9.90;99.90;;;;;;5134224;27;20106;-65
2021/10/12 01:51:19;;;;;;;106.82;49.50;;;9.90;99.90;;;;;;5134133;27;20487;-65
2021/10/12 01:53:45;;;;;;;70.18;34.67;;;9.90;99.90;;;;;;5134041;27;20518;-65
2021/10/12 01:56:10;;;;;;;61.50;33.57;;;9.90;99.90;;;;;;5134103;27;20023;-65
2021/10/12 01:58:36;;;;;;;60.83;33.00;;;10.00;99.90;;;;;;5133881;27;20071;-66
2021/10/12 02:01:03;;;;;;;59.93;34.00;;;10.00;99.90;;;;;;5134114;27;20252;-65
2021/10/12 02:03:28;;;;;;;69.80;39.22;;;10.00;99.90;;;;;;5133942;27;20065;-65
2021/10/12 02:05:54;;;;;;;63.03;35.67;;;10.00;99.90;;;;;;5133832;27;20084;-65
2021/10/12 02:08:19;;;;;;;61.57;34.27;;;10.00;99.90;;;;;;5134078;27;20015;-65
2021/10/12 02:10:45;;;;;;;59.83;31.17;;;10.00;99.90;;;;;;5134021;28;20102;-65
2021/10/12 02:13:11;;;;;;;62.55;33.08;;;10.10;99.90;;;;;;5133910;28;20045;-64
2021/10/12 02:15:36;;;;;;;56.33;31.15;;;10.10;99.90;;;;;;5135183;27;20040;-64
2021/10/12 02:18:02;;;;;;;58.20;32.67;;;10.00;99.90;;;;;;5138511;27;20024;-64
2021/10/12 02:20:28;;;;;;;54.10;33.13;;;9.90;99.90;;;;;;5138875;27;20410;-65
2021/10/12 02:22:54;;;;;;;66.33;34.93;;;10.00;99.90;;;;;;5138453;27;20388;-65
2021/10/12 02:25:19;;;;;;;56.37;31.83;;;9.90;99.90;;;;;;5138197;27;20426;-65
2021/10/12 02:27:45;;;;;;;58.23;33.13;;;9.90;99.90;;;;;;5138101;27;20032;-65
2021/10/12 02:30:13;;;;;;;60.87;32.50;;;9.90;99.90;;;;;;5119402;27;20061;-65
2021/10/12 02:32:39;;;;;;;58.65;31.42;;;9.90;99.90;;;;;;5137637;27;20023;-65
2021/10/12 02:35:05;;;;;;;55.28;31.42;;;9.90;99.90;;;;;;5137791;27;20116;-64
2021/10/12 02:37:31;;;;;;;;;;;9.90;99.90;;;;;;5138292;27;20072;-65
2021/10/12 02:39:56;;;;;;;53.85;30.33;;;9.90;99.90;;;;;;5138168;27;19903;-65
2021/10/12 02:42:22;;;;;;;56.67;32.33;;;9.90;99.90;;;;;;5137383;27;20019;-65
2021/10/12 02:44:48;;;;;;;54.97;30.23;;;9.90;99.90;;;;;;5137582;27;20023;-65
2021/10/12 02:47:13;;;;;;;57.53;31.23;;;9.90;99.90;;;;;;5137523;27;20256;-65
2021/10/12 02:49:39;;;;;;;56.57;32.50;;;9.90;99.90;;;;;;5137705;27;20106;-66
2021/10/12 02:52:05;;;;;;;57.07;30.80;;;9.90;99.90;;;;;;5137548;27;20113;-65
2021/10/12 02:54:31;;;;;;;60.65;31.83;;;9.90;99.90;;;;;;5137715;27;20329;-66
2021/10/12 02:56:56;;;;;;;61.38;31.23;;;9.90;99.90;;;;;;5137667;27;20023;-66
2021/10/12 02:59:22;;;;;;;59.03;33.60;;;9.90;99.90;;;;;;5137377;27;20072;-66
2021/10/12 03:01:48;;;;;;;50.83;29.20;;;9.80;99.90;;;;;;5137331;27;20046;-66
2021/10/12 03:04:14;;;;;;;56.33;30.38;;;9.80;99.90;;;;;;5137341;27;20404;-66
2021/10/12 03:06:40;;;;;;;54.13;30.57;;;9.80;99.90;;;;;;5137756;27;20027;-66
2021/10/12 03:09:06;;;;;;;55.75;30.38;;;9.80;99.90;;;;;;5137035;27;20019;-66
2021/10/12 03:11:32;;;;;;;55.55;31.10;;;9.80;99.90;;;;;;5137150;27;20083;-66
2021/10/12 03:13:58;;;;;;;55.53;30.60;;;9.80;99.90;;;;;;5137007;27;20353;-66
2021/10/12 03:16:23;;;;;;;56.50;30.90;;;9.80;99.90;;;;;;5137023;27;20019;-66
2021/10/12 03:18:49;;;;;;;55.58;29.58;;;9.80;99.90;;;;;;5137013;27;20031;-66
2021/10/12 03:21:15;;;;;;;53.75;30.52;;;9.80;99.90;;;;;;5137086;27;20395;-66
2021/10/12 03:23:42;;;;;;;55.35;30.27;;;9.90;99.90;;;;;;5137132;27;20384;-66
2021/10/12 03:26:07;;;;;;;;;;;9.90;99.90;;;;;;5137387;27;20019;-66
2021/10/12 03:28:33;;;;;;;53.15;28.25;;;9.90;99.90;;;;;;5136732;27;19942;-66
2021/10/12 03:30:59;;;;;;;53.05;29.77;;;9.90;99.90;;;;;;5136925;27;20448;-66
2021/10/12 03:33:25;;;;;;;51.45;28.80;;;9.80;99.90;;;;;;5137184;27;20051;-66
2021/10/12 03:35:55;;;;;;;54.70;29.83;;;9.90;99.90;;;;;;5136924;27;20022;-66
2021/10/12 03:38:23;;;;;;;54.45;29.38;;;9.90;99.90;;;;;;5136928;27;20253;-67
2021/10/12 03:40:49;;;;;;;55.88;30.80;;;9.90;99.90;;;;;;5118258;27;20034;-66
2021/10/12 03:43:15;;;;;;;52.78;30.77;;;9.90;99.90;;;;;;5139418;27;20019;-67
2021/10/12 03:45:41;;;;;;;61.08;32.45;;;9.90;99.90;;;;;;5142046;27;20040;-66
2021/10/12 03:48:06;;;;;;;57.40;32.33;;;9.90;99.90;;;;;;5138392;27;20019;-66
2021/10/12 03:50:32;;;;;;;57.97;32.43;;;9.80;99.90;;;;;;5138714;27;20019;-65
2021/10/12 03:52:58;;;;;;;60.43;32.37;;;9.90;99.90;;;;;;5139670;27;20498;-66
2021/10/12 03:55:24;;;;;;;54.33;31.90;;;9.80;99.90;;;;;;5122872;27;20273;-66
2021/10/12 03:57:50;;;;;;;64.30;31.73;;;10.00;99.90;;;;;;5141930;27;20022;-66
2021/10/12 04:00:16;;;;;;;58.67;31.73;;;9.90;99.90;;;;;;5139384;27;20198;-66
2021/10/12 04:02:42;;;;;;;57.85;30.80;;;9.80;99.90;;;;;;5138324;27;20055;-66
2021/10/12 04:05:08;;;;;;;59.92;33.00;;;9.80;99.90;;;;;;5137516;27;20459;-65
2021/10/12 04:07:33;;;;;;;66.15;33.90;;;9.70;99.90;;;;;;5137179;27;20063;-66
2021/10/12 04:09:59;;;;;;;61.47;33.07;;;9.70;99.90;;;;;;5117869;27;20023;-66
2021/10/12 04:12:24;;;;;;;64.10;31.60;;;9.70;99.90;;;;;;5136948;27;20105;-67
2021/10/12 04:14:50;;;;;;;57.87;31.30;;;9.70;99.90;;;;;;5136550;27;20062;-67
2021/10/12 04:17:16;;;;;;;61.87;32.57;;;9.60;99.90;;;;;;5136218;27;20260;-67
2021/10/12 04:19:41;;;;;;;61.72;32.80;;;9.70;99.90;;;;;;5136214;27;20015;-66
2021/10/12 04:22:07;;;;;;;62.30;33.83;;;9.70;99.90;;;;;;5136066;27;20026;-67
2021/10/12 04:24:35;;;;;;;61.57;33.37;;;9.60;99.90;;;;;;5135945;27;20030;-67
2021/10/12 04:27:01;;;;;;;62.97;32.88;;;9.60;99.90;;;;;;5117442;27;20502;-65
2021/10/12 04:29:26;;;;;;;58.77;31.93;;;9.60;99.90;;;;;;5135962;27;20027;-67
2021/10/12 04:31:52;;;;;;;65.90;34.07;;;9.60;99.90;;;;;;5136194;27;20464;-66
2021/10/12 04:34:18;;;;;;;61.80;32.58;;;9.60;99.90;;;;;;5135517;27;20027;-67
2021/10/12 04:36:44;;;;;;;58.47;32.30;;;9.60;99.90;;;;;;5135694;27;20033;-67
2021/10/12 04:39:09;;;;;;;59.57;31.43;;;9.60;99.90;;;;;;5116320;27;20019;-67
2021/10/12 04:41:36;;;;;;;64.90;32.87;;;9.70;99.90;;;;;;5135440;27;20031;-65
2021/10/12 04:44:02;;;;;;;61.53;32.95;;;9.70;99.90;;;;;;5135879;27;20019;-65
2021/10/12 04:46:28;;;;;;;62.58;33.45;;;9.70;99.90;;;;;;5135666;27;20471;-65
2021/10/12 04:48:54;;;;;;;61.73;34.37;;;9.60;99.90;;;;;;5135698;27;20030;-65
2021/10/12 04:51:19;;;;;;;67.97;33.90;;;9.70;99.90;;;;;;5117018;27;20268;-65
2021/10/12 04:53:45;;;;;;;63.90;34.60;;;9.70;99.90;;;;;;5135907;27;20523;-65
2021/10/12 04:56:11;;;;;;;61.00;32.33;;;9.70;99.90;;;;;;5117059;27;20124;-66
2021/10/12 04:58:36;;;;;;;62.20;33.70;;;9.70;99.90;;;;;;5135702;27;20054;-66
2021/10/12 05:01:02;;;;;;;64.73;33.10;;;9.70;99.90;;;;;;5135249;27;20030;-66
2021/10/12 05:03:27;;;;;;;56.97;32.30;;;9.70;99.90;;;;;;5135092;27;20035;-66
2021/10/12 05:05:53;;;;;;;57.27;31.00;;;9.70;99.90;;;;;;5135054;27;20030;-66
2021/10/12 05:08:19;;;;;;;61.93;33.07;;;9.70;99.90;;;;;;5135450;27;20027;-65
2021/10/12 05:10:44;;;;;;;61.80;32.17;;;9.60;99.90;;;;;;5134888;27;20058;-66
2021/10/12 05:13:10;;;;;;;62.83;34.63;;;9.60;99.90;;;;;;5135053;27;20464;-66
2021/10/12 05:15:37;;;;;;;61.88;33.47;;;9.60;99.90;;;;;;5134852;27;20031;-65
2021/10/12 05:18:09;;;;;;;;;;;9.70;99.90;;;;;;5116834;27;20023;-65
2021/10/12 05:20:35;;;;;;;62.83;33.00;;;9.70;99.90;;;;;;5134742;27;19980;-66
2021/10/12 05:23:01;;;;;;;65.07;33.90;;;9.70;99.90;;;;;;5135566;27;20533;-67
2021/10/12 05:25:27;;;;;;;84.87;39.90;;;9.60;99.90;;;;;;5117016;27;20035;-67
2021/10/12 05:27:52;;;;;;;64.32;35.80;;;9.60;99.90;;;;;;5135471;27;20023;-66
2021/10/12 05:30:23;;;;;;;63.90;33.37;;;9.60;99.90;;;;;;5134871;27;20070;-65
2021/10/12 05:32:49;;;;;;;67.15;35.80;;;9.60;99.90;;;;;;5135398;27;20027;-69
2021/10/12 05:35:15;;;;;;;75.20;36.60;;;9.60;99.90;;;;;;5116545;27;20038;-68
2021/10/12 05:37:40;;;;;;;76.32;38.67;;;9.60;99.90;;;;;;5135147;27;20020;-67
2021/10/12 05:40:07;;;;;;;71.07;36.33;;;9.50;99.90;;;;;;5116573;27;20160;-65
2021/10/12 05:42:32;;;;;;;63.40;34.78;;;9.50;99.90;;;;;;5135159;27;20099;-66
2021/10/12 05:44:58;;;;;;;69.25;33.90;;;9.70;99.90;;;;;;5137796;27;20123;-67
2021/10/12 05:47:25;;;;;;;69.87;36.27;;;9.70;99.90;;;;;;5143574;27;20086;-68
2021/10/12 05:49:51;;;;;;;68.47;35.65;;;9.60;99.90;;;;;;5124226;27;20028;-67
2021/10/12 05:52:22;;;;;;;71.70;36.83;;;9.70;99.90;;;;;;5124439;27;20062;-68
2021/10/12 05:55:04;;;;;;;64.32;34.63;;;9.60;99.90;;;;;;5143351;27;20019;-69
2021/10/12 05:57:41;;;;;;;71.80;36.45;;;9.60;99.90;;;;;;5141926;27;20019;-68
2021/10/12 06:00:07;;;;;;;69.72;35.50;;;9.60;99.90;;;;;;5141404;27;20029;-66
2021/10/12 06:02:33;;;;;;;65.38;32.97;;;9.70;99.90;;;;;;5142607;27;20042;-69
2021/10/12 06:04:59;;;;;;;64.37;32.50;;;9.80;99.90;;;;;;5126498;28;20027;-70
2021/10/12 06:07:25;;;;;;;60.30;32.17;;;9.80;99.90;;;;;;5127082;27;20031;-69
2021/10/12 06:09:50;;;;;;;66.03;35.05;;;9.80;99.90;;;;;;5124568;28;20019;-69
2021/10/12 06:12:16;;;;;;;65.00;34.37;;;9.70;99.90;;;;;;5139715;28;20037;-69
2021/10/12 06:14:43;;;;;;;68.30;35.40;;;9.70;99.90;;;;;;5134133;28;20030;-68
2021/10/12 06:17:09;;;;;;;64.18;34.60;;;9.80;99.90;;;;;;5136134;28;20102;-68
2021/10/12 06:19:35;;;;;;;71.97;36.40;;;9.70;99.90;;;;;;5136626;28;20058;-69
2021/10/12 06:22:00;;;;;;;69.83;35.73;;;9.60;99.90;;;;;;5134927;28;20019;-67
2021/10/12 06:24:26;;;;;;;61.83;32.93;;;9.50;99.90;;;;;;5136617;28;20026;-70
2021/10/12 06:26:52;;;;;;;69.03;34.53;;;9.50;99.90;;;;;;5135615;28;20027;-68
2021/10/12 06:29:17;;;;;;;66.07;32.77;;;9.60;99.90;;;;;;5134485;28;20023;-68
2021/10/12 06:31:43;;;;;;;64.30;31.13;;;9.70;99.90;;;;;;5134171;28;20027;-68
2021/10/12 06:34:08;;;;;;;58.97;31.83;;;9.80;99.90;;;;;;5134962;28;20023;-69
2021/10/12 06:36:35;;;;;;;62.83;33.23;;;9.80;99.90;;;;;;5118231;28;20051;-69
2021/10/12 06:39:01;;;;;;;59.95;32.70;;;9.80;99.90;;;;;;5139314;28;20016;-70
2021/10/12 06:41:27;;;;;;;56.53;29.67;;;9.70;99.90;;;;;;5120999;28;20033;-70
2021/10/12 06:43:52;;;;;;;64.73;33.43;;;9.70;99.90;;;;;;5139008;28;20092;-70
2021/10/12 06:46:18;;;;;;;62.63;32.50;;;9.90;99.90;;;;;;5119654;28;20035;-69
2021/10/12 06:48:43;;;;;;;58.70;30.93;;;9.80;99.90;;;;;;5136354;28;20483;-68
2021/10/12 06:51:09;;;;;;;59.93;31.07;;;9.70;99.90;;;;;;5115630;28;20083;-68
2021/10/12 06:53:35;;;;;;;62.13;31.53;;;9.70;99.90;;;;;;5134019;28;20027;-68
2021/10/12 06:56:00;;;;;;;59.37;29.83;;;9.70;99.90;;;;;;5133991;28;20038;-68
2021/10/12 06:58:26;;;;;;;63.40;30.73;;;9.70;99.90;;;;;;5115163;28;20034;-68
2021/10/12 07:00:51;;;;;;;59.67;30.20;;;9.70;99.90;;;;;;5133519;27;20597;-69
2021/10/12 07:03:17;;;;;;;58.83;30.37;;;9.70;99.90;;;;;;5124919;27;20049;-69
2021/10/12 07:05:43;;;;;;;60.63;31.05;;;9.60;99.90;;;;;;5133383;27;20054;-68
2021/10/12 07:08:08;;;;;;;58.20;30.33;;;9.60;99.90;;;;;;5138647;27;20475;-69
2021/10/12 07:10:34;;;;;;;64.20;30.80;;;9.70;99.90;;;;;;5138057;27;20031;-68
2021/10/12 07:13:00;;;;;;;62.60;30.07;;;9.70;99.90;;;;;;5150402;27;20023;-68
2021/10/12 07:15:25;;;;;;;54.30;29.20;;;9.70;99.90;;;;;;5154193;27;20052;-68
2021/10/12 07:17:52;;;;;;;56.20;29.20;;;9.70;99.90;;;;;;5147243;27;20060;-68
2021/10/12 07:20:17;;;;;;;;;;;9.70;99.90;;;;;;5147315;27;20068;-68
2021/10/12 07:22:43;;;;;;;53.45;27.80;;;9.70;99.90;;;;;;5139154;27;19903;-70
2021/10/12 07:25:09;;;;;;;58.07;28.90;;;9.80;99.90;;;;;;5138042;27;20374;-69
2021/10/12 07:27:35;;;;;;;51.40;26.85;;;9.70;99.90;;;;;;5137703;27;20034;-69
2021/10/12 07:30:02;;;;;;;49.30;26.55;;;9.80;99.90;;;;;;5137629;27;20472;-69
2021/10/12 07:32:27;;;;;;;51.95;27.10;;;9.80;99.90;;;;;;5137295;27;20027;-68
2021/10/12 07:34:53;;;;;;;48.93;26.17;;;9.90;99.90;;;;;;5138749;27;20019;-69
2021/10/12 07:37:19;;;;;;;47.70;25.63;;;10.00;99.90;;;;;;5119889;27;20023;-69
2021/10/12 07:39:44;;;;;;;48.83;25.30;;;10.20;99.90;;;;;;5118842;27;20062;-67
2021/10/12 07:42:11;;;;;;;46.43;25.13;;;10.30;99.90;;;;;;5137699;27;20030;-67
2021/10/12 07:44:37;;;;;;;47.97;24.77;;;10.40;99.90;;;;;;5118683;27;20473;-70
2021/10/12 07:47:04;;;;;;;41.38;23.00;;;10.40;99.90;;;;;;5137208;27;20091;-67
2021/10/12 07:49:32;;;;;;;40.58;22.25;;;10.50;99.90;;;;;;5118659;27;20404;-68
2021/10/12 07:51:59;;;;;;;38.08;21.52;;;10.60;99.90;;;;;;5137026;27;20058;-68
2021/10/12 07:54:35;;;;;;;38.13;21.38;;;10.70;99.90;;;;;;5118976;27;20030;-67
2021/10/12 07:57:01;;;;;;;39.05;21.90;;;10.80;99.90;;;;;;5118106;27;20034;-67
2021/10/12 07:59:27;;;;;;;37.53;21.43;;;11.00;99.90;;;;;;5136227;27;20023;-67
2021/10/12 08:01:54;;;;;;;35.08;20.35;;;11.10;99.90;;;;;;5118050;27;20015;-68
2021/10/12 08:04:20;;;;;;;34.63;20.38;;;11.10;99.90;;;;;;5136339;27;20035;-68
2021/10/12 08:06:46;;;;;;;35.37;20.13;;;11.30;99.90;;;;;;5118512;27;20023;-70
2021/10/12 08:09:11;;;;;;;36.35;19.90;;;11.40;99.90;;;;;;5118769;27;20073;-69
2021/10/12 08:11:37;;;;;;;36.47;18.60;;;11.50;99.90;;;;;;5138318;27;20035;-68
2021/10/12 08:14:05;;;;;;;28.23;17.90;;;11.60;99.90;;;;;;5136628;27;20090;-68
2021/10/12 08:16:32;;;;;;;32.58;17.85;;;11.60;99.90;;;;;;5118053;27;20491;-68
2021/10/12 08:19:03;;;;;;;29.48;17.83;;;11.60;99.90;;;;;;5136434;27;20019;-68
2021/10/12 08:21:30;;;;;;;34.75;17.20;;;11.70;99.90;;;;;;5135748;27;20024;-68
2021/10/12 08:24:00;;;;;;;29.40;15.77;;;12.00;99.90;;;;;;5116933;27;20031;-68
2021/10/12 08:26:27;;;;;;;25.38;15.82;;;11.80;99.90;;;;;;5117688;27;20055;-69
2021/10/12 08:28:53;;;;;;;28.45;16.67;;;11.70;99.90;;;;;;5135733;27;20031;-69
2021/10/12 08:31:19;;;;;;;29.25;16.65;;;11.60;99.90;;;;;;5135599;27;20019;-69
2021/10/12 08:33:45;;;;;;;26.67;15.07;;;11.60;99.90;;;;;;5135631;27;20159;-69
2021/10/12 08:36:11;;;;;;;27.05;15.10;;;11.70;99.90;;;;;;5117271;27;20038;-69
2021/10/12 08:38:39;;;;;;;27.73;15.85;;;11.60;99.90;;;;;;5117838;27;20445;-69
2021/10/12 08:41:06;;;;;;;27.58;15.20;;;11.50;99.90;;;;;;5117046;27;20035;-69
2021/10/12 08:43:33;;;;;;;;;;;11.40;99.90;;;;;;5136297;27;20167;-68
2021/10/12 08:45:59;;;;;;;29.58;15.38;;;11.30;99.90;;;;;;5117089;27;19903;-69
2021/10/12 08:48:27;;;;;;;29.83;16.58;;;11.30;99.90;;;;;;5135747;27;20027;-68
2021/10/12 08:50:53;;;;;;;29.30;16.80;;;11.20;99.90;;;;;;5135295;27;20111;-68
2021/10/12 08:53:19;;;;;;;33.80;18.63;;;11.20;99.90;;;;;;5135234;27;20421;-69
2021/10/12 08:55:44;;;;;;;26.33;16.58;;;11.20;99.90;;;;;;5135149;27;20015;-69
2021/10/12 08:58:11;;;;;;;29.03;16.70;;;11.20;99.90;;;;;;5135208;27;20050;-68
2021/10/12 09:00:38;;;;;;;31.13;17.25;;;11.20;99.90;;;;;;5116701;27;20023;-69
2021/10/12 09:06:03;;;;;;;26.83;17.15;;;11.30;99.90;;;;;;5135370;27;20035;-68
2021/10/12 09:08:35;;;;;;;35.92;20.90;;;11.40;99.90;;;;;;5135227;27;20019;-69
2021/10/12 09:11:02;;;;;;;29.95;16.00;;;11.40;99.90;;;;;;5135401;27;20043;-68
2021/10/12 09:13:28;;;;;;;24.98;15.50;;;11.50;99.90;;;;;;5134851;27;20019;-68
2021/10/12 09:16:08;;;;;;;29.05;15.75;;;11.50;99.90;;;;;;5116423;27;20030;-69
2021/10/12 09:18:46;;;;;;;27.33;16.20;;;11.60;99.90;;;;;;5116320;27;20484;-68
2021/10/12 09:21:33;;;;;;;28.20;16.80;;;11.70;99.90;;;;;;5134785;27;20026;-68
2021/10/12 09:24:08;;;;;;;24.83;14.52;;;11.70;99.90;;;;;;5134931;27;20411;-67
2021/10/12 09:26:39;;;;;;;26.10;16.33;;;11.70;99.90;;;;;;5135468;27;20468;-68
2021/10/12 09:29:13;;;;;;;26.98;15.07;;;11.70;99.90;;;;;;5135114;27;20083;-67
2021/10/12 09:31:42;;;;;;;24.38;15.45;;;11.60;99.90;;;;;;5116304;27;20122;-68
2021/10/12 09:34:09;;;;;;;25.98;15.20;;;11.60;99.90;;;;;;5116045;27;20023;-67
2021/10/12 09:36:36;;;;;;;25.58;14.68;;;11.70;99.90;;;;;;5116188;27;20026;-68
2021/10/12 09:39:03;;;;;;;24.02;14.70;;;11.60;99.90;;;;;;5133470;27;20026;-69
2021/10/12 09:41:29;;;;;;;22.73;13.60;;;11.70;99.90;;;;;;5134408;27;20050;-67
2021/10/12 09:44:16;;;;;;;27.60;15.07;;;11.80;99.90;;;;;;5134226;27;20160;-68
2021/10/12 09:46:51;;;;;;;23.90;14.65;;;11.90;99.90;;;;;;5135879;27;20464;-69
2021/10/12 09:49:22;;;;;;;23.70;13.95;;;12.00;99.90;;;;;;5116556;27;20019;-69
2021/10/12 09:52:07;;;;;;;25.63;14.77;;;12.10;99.90;;;;;;5134503;27;20020;-67
2021/10/12 09:54:38;;;;;;;25.70;13.50;;;12.30;99.90;;;;;;5135881;27;20027;-68
2021/10/12 09:57:06;;;;;;;22.40;12.30;;;12.40;99.90;;;;;;5127901;27;20030;-68
2021/10/12 09:59:33;;;;;;;24.35;13.55;;;12.50;99.90;;;;;;5137995;27;20023;-68
2021/10/12 10:01:59;;;;;;;20.98;12.70;;;12.50;99.90;;;;;;5134477;27;20413;-69
2021/10/12 10:04:28;;;;;;;21.52;12.82;;;12.40;99.90;;;;;;5118727;27;20030;-69
2021/10/12 10:07:02;;;;;;;23.92;14.35;;;12.50;99.90;;;;;;5115677;27;20037;-68
2021/10/12 10:09:30;;;;;;;22.20;12.55;;;12.50;99.90;;;;;;5134876;27;20099;-69
2021/10/12 10:11:55;;;;;;;21.67;12.75;;;12.40;99.90;;;;;;5134632;27;20020;-68
2021/10/12 10:14:21;;;;;;;24.58;13.15;;;12.50;99.90;;;;;;5134859;28;20468;-68
2021/10/12 10:16:50;;;;;;;22.87;13.00;;;12.50;99.90;;;;;;5134157;28;20030;-66
2021/10/12 10:19:43;;;;;;;22.60;14.05;;;12.50;99.90;;;;;;5133584;28;20284;-68
2021/10/12 10:22:29;;;;;;;20.50;12.10;;;12.40;99.90;;;;;;5130323;28;20050;-69
2021/10/12 10:24:57;;;;;;;19.77;12.70;;;12.50;99.90;;;;;;5115046;28;20122;-69
2021/10/12 10:27:35;;;;;;;23.98;12.20;;;12.50;99.90;;;;;;5133692;28;20135;-71
2021/10/12 10:30:32;;;;;;;20.13;11.80;;;12.50;99.90;;;;;;5133855;28;20024;-67
2021/10/12 10:33:00;;;;;;;21.63;12.20;;;12.50;99.90;;;;;;5115275;28;20030;-68
2021/10/12 10:35:34;;;;;;;19.75;12.18;;;12.40;99.90;;;;;;5133852;28;20079;-68
2021/10/12 10:38:21;;;;;;;22.20;12.00;;;12.30;99.90;;;;;;5136784;27;20101;-65
2021/10/12 10:40:48;;;;;;;20.98;12.77;;;12.20;99.90;;;;;;5137739;27;20024;-65
2021/10/12 10:43:14;;;;;;;23.98;13.25;;;12.20;99.90;;;;;;5137778;27;20028;-68
2021/10/12 10:45:43;;;;;;;24.88;13.10;;;12.20;99.90;;;;;;5137484;27;20073;-66
2021/10/12 10:48:11;;;;;;;35.60;14.85;;;12.30;99.90;;;;;;5137732;27;20486;-67
2021/10/12 10:50:36;;;;;;;89.75;21.60;;;12.40;99.90;;;;;;5137110;27;20031;-67
2021/10/12 10:53:05;;;;;;;35.90;13.82;;;12.40;99.90;;;;;;5137821;27;20076;-69
2021/10/12 10:55:36;;;;;;;22.65;12.88;;;12.60;99.90;;;;;;5137060;27;20034;-70
2021/10/12 10:58:19;;;;;;;24.75;13.52;;;12.70;99.90;;;;;;5137201;27;20148;-69
2021/10/12 11:00:52;;;;;;;25.10;12.93;;;12.70;99.90;;;;;;5118583;27;20164;-68
2021/10/12 11:03:36;;;;;;;20.73;11.95;;;12.90;99.90;;;;;;5118741;27;20023;-68
2021/10/12 11:06:15;;;;;;;21.23;12.40;;;13.20;99.90;;;;;;5137656;27;20030;-68
2021/10/12 11:09:01;;;;;;;25.33;12.40;;;13.70;99.90;;;;;;5118781;27;20034;-68
2021/10/12 11:11:34;;;;;;;20.77;12.13;;;13.90;99.90;;;;;;5118523;27;20030;-68
2021/10/12 11:14:00;;;;;;;18.63;11.05;;;14.00;99.90;;;;;;5137836;27;20023;-67
2021/10/12 11:16:34;;;;;;;20.35;11.05;;;14.00;99.90;;;;;;5136968;27;20019;-68
2021/10/12 11:19:01;;;;;;;18.33;12.30;;;14.00;99.90;;;;;;5136902;27;20352;-68
2021/10/12 11:21:27;;;;;;;19.75;12.35;;;14.00;99.90;;;;;;5136802;27;20027;-67
2021/10/12 11:23:57;;;;;;;16.55;11.35;;;13.90;99.90;;;;;;5118275;27;20020;-67
2021/10/12 11:26:27;;;;;;;21.27;11.93;;;13.90;99.90;;;;;;5118393;27;20030;-68
2021/10/12 11:28:55;;;;;;;20.42;11.50;;;13.90;99.90;;;;;;5136645;27;20114;-67
2021/10/12 11:31:23;;;;;;;22.10;12.60;;;13.90;99.90;;;;;;5118775;27;20027;-67
2021/10/12 11:33:54;;;;;;;19.60;11.95;;;14.00;99.90;;;;;;5117867;27;20027;-67
2021/10/12 11:36:31;;;;;;;18.52;11.38;;;14.30;99.90;;;;;;5136779;27;20095;-67
2021/10/12 11:38:59;;;;;;;22.80;11.73;;;14.40;99.90;;;;;;5136594;27;20484;-68
2021/10/12 11:41:30;;;;;;;18.65;11.18;;;14.50;99.90;;;;;;5118075;27;20069;-67
2021/10/12 11:43:59;;;;;;;16.98;11.15;;;14.60;99.90;;;;;;5118025;27;20378;-67
2021/10/12 11:46:27;;;;;;;21.75;11.73;;;14.60;99.90;;;;;;5137348;27;20039;-67
2021/10/12 11:48:53;;;;;;;13.40;10.05;;;14.70;99.90;;;;;;5136808;27;20377;-67
2021/10/12 11:51:22;;;;;;;14.77;9.02;;;14.80;99.90;;;;;;5138076;27;20019;-68
2021/10/12 11:53:50;;;;;;;16.25;9.43;;;14.80;99.90;;;;;;5118483;27;20023;-67
2021/10/12 11:56:17;;;;;;;21.90;9.80;;;14.70;99.90;;;;;;5136364;27;20041;-69
2021/10/12 11:58:44;;;;;;;16.75;10.20;;;14.60;99.90;;;;;;5136358;27;20045;-67
2021/10/12 12:01:14;;;;;;;18.50;11.65;;;14.50;99.90;;;;;;5136272;27;20023;-67
2021/10/12 12:03:41;;;;;;;16.45;9.80;;;14.50;99.90;;;;;;5136296;27;20077;-67
2021/10/12 12:06:07;;;;;;;14.63;9.35;;;14.50;99.90;;;;;;5136116;27;20016;-67
2021/10/12 12:08:38;;;;;;;14.07;9.32;;;14.50;99.90;;;;;;5136070;27;20027;-67
2021/10/12 12:11:04;;;;;;;14.95;9.13;;;14.60;99.90;;;;;;5136084;27;20046;-67
2021/10/12 12:13:31;;;;;;;14.27;8.27;;;14.60;99.90;;;;;;5136366;27;20464;-67
2021/10/12 12:15:57;;;;;;;18.17;8.43;;;14.80;99.90;;;;;;5135835;27;20057;-67
2021/10/12 12:18:27;;;;;;;11.25;7.68;;;14.80;99.90;;;;;;5117682;27;20077;-67
2021/10/12 12:20:58;;;;;;;18.98;7.78;;;14.80;99.90;;;;;;5136023;27;20079;-68
2021/10/12 12:23:38;;;;;;;13.50;6.78;;;14.70;99.90;;;;;;5136237;27;20402;-67
2021/10/12 12:26:20;;;;;;;13.00;6.70;;;14.70;99.90;;;;;;5136370;27;20034;-67
2021/10/12 12:28:46;;;;;;;17.60;7.93;;;14.50;99.90;;;;;;5136988;27;20034;-67
2021/10/12 12:31:25;;;;;;;15.30;7.50;;;14.30;99.90;;;;;;5136788;27;20023;-67
2021/10/12 12:33:55;;;;;;;14.48;6.55;;;14.10;99.90;;;;;;5135639;27;20027;-66
2021/10/12 12:36:34;;;;;;;12.25;5.63;;;14.10;99.90;;;;;;5135633;27;20033;-67
2021/10/12 12:39:08;;;;;;;11.43;6.05;;;14.00;99.90;;;;;;5117335;27;20019;-68
2021/10/12 12:41:41;;;;;;;14.18;7.03;;;14.00;99.90;;;;;;5117214;27;20019;-69